VYSL weather

Salingyi Airport
Salingyi, Sagaing Division, Burma

Public forecast

Using degrees Celsius for public forecast. Weather courtesy of forecast.io.

Closest aviation weather report (METAR) to Salingyi Airport

Closest report is Mandalay International Airport, 58.6 nm (108.6 km) ESE. Retrieved 2019/12/14 12:30 UTC (13 minutes ago):

VYMD 141230Z 36003KT 6000 FEW020 19/14 Q1015 NOSIG

Closest aviation forecast (TAF) to Salingyi Airport

Closest forecast is Mandalay International Airport, 58.6 nm (108.6 km) ESE. Retrieved 2019/12/14 12:00 UTC (43 minutes ago):

TAF VYMD 141100Z 1412/1512 34007KT 6000 FEW020 TEMPO 1412/1418 36007KT 5000 HZ FEW020